sensor_id;sensor_type;location;lat;lon;timestamp;P1;durP1;ratioP1;P2;durP2;ratioP2
9306;SDS011;4691;47.612;7.610;2023-07-22T00:01:21;9.00;;;5.57;;
9306;SDS011;4691;47.612;7.610;2023-07-22T00:03:47;8.73;;;5.75;;
9306;SDS011;4691;47.612;7.610;2023-07-22T00:06:12;8.45;;;5.43;;
9306;SDS011;4691;47.612;7.610;2023-07-22T00:08:38;8.90;;;5.32;;
9306;SDS011;4691;47.612;7.610;2023-07-22T00:11:04;9.90;;;5.13;;
9306;SDS011;4691;47.612;7.610;2023-07-22T00:13:30;11.18;;;5.32;;
9306;SDS011;4691;47.612;7.610;2023-07-22T00:15:57;11.57;;;5.97;;
9306;SDS011;4691;47.612;7.610;2023-07-22T00:18:24;10.32;;;5.30;;
9306;SDS011;4691;47.612;7.610;2023-07-22T00:20:49;9.00;;;5.20;;
9306;SDS011;4691;47.612;7.610;2023-07-22T00:23:15;10.45;;;5.43;;
9306;SDS011;4691;47.612;7.610;2023-07-22T00:25:41;14.70;;;6.47;;
9306;SDS011;4691;47.612;7.610;2023-07-22T00:28:06;13.82;;;5.93;;
9306;SDS011;4691;47.612;7.610;2023-07-22T00:30:32;9.13;;;5.60;;
9306;SDS011;4691;47.612;7.610;2023-07-22T00:32:57;10.60;;;5.38;;
9306;SDS011;4691;47.612;7.610;2023-07-22T00:35:22;15.30;;;5.78;;
9306;SDS011;4691;47.612;7.610;2023-07-22T00:37:48;10.88;;;5.55;;
9306;SDS011;4691;47.612;7.610;2023-07-22T00:40:13;12.13;;;5.25;;
9306;SDS011;4691;47.612;7.610;2023-07-22T00:42:39;12.10;;;5.50;;
9306;SDS011;4691;47.612;7.610;2023-07-22T00:45:05;11.25;;;5.15;;
9306;SDS011;4691;47.612;7.610;2023-07-22T00:47:32;13.30;;;5.18;;
9306;SDS011;4691;47.612;7.610;2023-07-22T00:49:59;12.85;;;6.90;;
9306;SDS011;4691;47.612;7.610;2023-07-22T00:52:26;14.07;;;5.53;;
9306;SDS011;4691;47.612;7.610;2023-07-22T00:54:52;12.93;;;5.32;;
9306;SDS011;4691;47.612;7.610;2023-07-22T00:57:17;10.40;;;5.13;;
9306;SDS011;4691;47.612;7.610;2023-07-22T00:59:44;11.35;;;5.53;;
9306;SDS011;4691;47.612;7.610;2023-07-22T01:02:10;13.77;;;5.30;;
9306;SDS011;4691;47.612;7.610;2023-07-22T01:04:35;8.23;;;4.55;;
9306;SDS011;4691;47.612;7.610;2023-07-22T01:07:01;14.00;;;5.30;;
9306;SDS011;4691;47.612;7.610;2023-07-22T01:09:37;12.35;;;5.38;;
9306;SDS011;4691;47.612;7.610;2023-07-22T01:12:03;9.90;;;5.22;;
9306;SDS011;4691;47.612;7.610;2023-07-22T01:14:30;8.65;;;5.10;;
9306;SDS011;4691;47.612;7.610;2023-07-22T01:16:57;11.02;;;5.40;;
9306;SDS011;4691;47.612;7.610;2023-07-22T01:19:23;10.80;;;5.25;;
9306;SDS011;4691;47.612;7.610;2023-07-22T01:21:49;8.93;;;5.03;;
9306;SDS011;4691;47.612;7.610;2023-07-22T01:24:15;9.98;;;5.30;;
9306;SDS011;4691;47.612;7.610;2023-07-22T01:26:41;12.82;;;5.38;;
9306;SDS011;4691;47.612;7.610;2023-07-22T01:29:06;8.02;;;4.65;;
9306;SDS011;4691;47.612;7.610;2023-07-22T01:31:35;10.07;;;5.30;;
9306;SDS011;4691;47.612;7.610;2023-07-22T01:34:03;11.90;;;5.55;;
9306;SDS011;4691;47.612;7.610;2023-07-22T01:36:29;10.75;;;5.70;;
9306;SDS011;4691;47.612;7.610;2023-07-22T01:38:54;10.27;;;5.22;;
9306;SDS011;4691;47.612;7.610;2023-07-22T01:41:19;12.73;;;5.55;;
9306;SDS011;4691;47.612;7.610;2023-07-22T01:43:45;12.25;;;5.78;;
9306;SDS011;4691;47.612;7.610;2023-07-22T01:46:10;9.60;;;5.85;;
9306;SDS011;4691;47.612;7.610;2023-07-22T01:48:35;8.20;;;5.60;;
9306;SDS011;4691;47.612;7.610;2023-07-22T01:51:01;13.10;;;5.70;;
9306;SDS011;4691;47.612;7.610;2023-07-22T01:53:27;14.18;;;5.85;;
9306;SDS011;4691;47.612;7.610;2023-07-22T01:55:52;10.98;;;5.57;;
9306;SDS011;4691;47.612;7.610;2023-07-22T01:58:19;14.43;;;5.63;;
9306;SDS011;4691;47.612;7.610;2023-07-22T02:00:48;12.02;;;5.53;;
9306;SDS011;4691;47.612;7.610;2023-07-22T02:03:15;9.60;;;5.40;;
9306;SDS011;4691;47.612;7.610;2023-07-22T02:05:40;11.70;;;6.18;;
9306;SDS011;4691;47.612;7.610;2023-07-22T02:08:05;10.50;;;6.40;;
9306;SDS011;4691;47.612;7.610;2023-07-22T02:10:31;11.38;;;6.28;;
9306;SDS011;4691;47.612;7.610;2023-07-22T02:12:56;16.35;;;6.70;;
9306;SDS011;4691;47.612;7.610;2023-07-22T02:15:21;11.40;;;6.50;;
9306;SDS011;4691;47.612;7.610;2023-07-22T02:17:49;10.15;;;5.90;;
9306;SDS011;4691;47.612;7.610;2023-07-22T02:20:15;10.57;;;6.38;;
9306;SDS011;4691;47.612;7.610;2023-07-22T02:22:40;15.40;;;6.38;;
9306;SDS011;4691;47.612;7.610;2023-07-22T02:25:06;9.73;;;5.90;;
9306;SDS011;4691;47.612;7.610;2023-07-22T02:27:32;14.38;;;6.13;;
9306;SDS011;4691;47.612;7.610;2023-07-22T02:29:57;12.80;;;6.15;;
9306;SDS011;4691;47.612;7.610;2023-07-22T02:32:22;11.00;;;5.97;;
9306;SDS011;4691;47.612;7.610;2023-07-22T02:34:48;13.50;;;5.65;;
9306;SDS011;4691;47.612;7.610;2023-07-22T02:37:13;18.17;;;6.38;;
9306;SDS011;4691;47.612;7.610;2023-07-22T02:39:38;12.15;;;6.13;;
9306;SDS011;4691;47.612;7.610;2023-07-22T02:42:04;9.98;;;5.45;;
9306;SDS011;4691;47.612;7.610;2023-07-22T02:44:29;14.30;;;5.82;;
9306;SDS011;4691;47.612;7.610;2023-07-22T02:46:55;10.52;;;5.47;;
9306;SDS011;4691;47.612;7.610;2023-07-22T02:49:20;10.45;;;5.65;;
9306;SDS011;4691;47.612;7.610;2023-07-22T02:51:45;10.07;;;5.50;;
9306;SDS011;4691;47.612;7.610;2023-07-22T02:54:11;13.07;;;5.85;;
9306;SDS011;4691;47.612;7.610;2023-07-22T02:56:36;14.77;;;6.55;;
9306;SDS011;4691;47.612;7.610;2023-07-22T02:59:02;14.07;;;6.20;;
9306;SDS011;4691;47.612;7.610;2023-07-22T03:01:27;11.55;;;6.25;;
9306;SDS011;4691;47.612;7.610;2023-07-22T03:03:53;9.82;;;6.32;;
9306;SDS011;4691;47.612;7.610;2023-07-22T03:06:18;12.77;;;6.88;;
9306;SDS011;4691;47.612;7.610;2023-07-22T03:08:43;13.50;;;6.55;;
9306;SDS011;4691;47.612;7.610;2023-07-22T03:11:09;12.55;;;6.53;;
9306;SDS011;4691;47.612;7.610;2023-07-22T03:13:34;8.43;;;5.60;;
9306;SDS011;4691;47.612;7.610;2023-07-22T03:16:00;11.77;;;5.57;;
9306;SDS011;4691;47.612;7.610;2023-07-22T03:18:29;10.85;;;5.88;;
9306;SDS011;4691;47.612;7.610;2023-07-22T03:20:55;15.13;;;6.30;;
9306;SDS011;4691;47.612;7.610;2023-07-22T03:23:20;10.15;;;6.15;;
9306;SDS011;4691;47.612;7.610;2023-07-22T03:25:47;10.15;;;6.13;;
9306;SDS011;4691;47.612;7.610;2023-07-22T03:28:12;11.10;;;6.75;;
9306;SDS011;4691;47.612;7.610;2023-07-22T03:30:38;15.75;;;6.57;;
9306;SDS011;4691;47.612;7.610;2023-07-22T03:33:03;13.63;;;7.00;;
9306;SDS011;4691;47.612;7.610;2023-07-22T03:35:29;11.00;;;5.95;;
9306;SDS011;4691;47.612;7.610;2023-07-22T03:37:54;9.38;;;6.03;;
9306;SDS011;4691;47.612;7.610;2023-07-22T03:40:20;12.25;;;6.68;;
9306;SDS011;4691;47.612;7.610;2023-07-22T03:42:50;11.93;;;7.13;;
9306;SDS011;4691;47.612;7.610;2023-07-22T03:45:16;15.00;;;6.90;;
9306;SDS011;4691;47.612;7.610;2023-07-22T03:47:46;11.65;;;6.78;;
9306;SDS011;4691;47.612;7.610;2023-07-22T03:50:15;12.63;;;6.65;;
9306;SDS011;4691;47.612;7.610;2023-07-22T03:52:40;12.80;;;5.95;;
9306;SDS011;4691;47.612;7.610;2023-07-22T03:55:05;12.45;;;6.43;;
9306;SDS011;4691;47.612;7.610;2023-07-22T03:57:31;13.57;;;6.75;;
9306;SDS011;4691;47.612;7.610;2023-07-22T03:59:57;10.88;;;6.70;;
9306;SDS011;4691;47.612;7.610;2023-07-22T04:02:22;15.07;;;6.93;;
9306;SDS011;4691;47.612;7.610;2023-07-22T04:04:50;16.25;;;6.88;;
9306;SDS011;4691;47.612;7.610;2023-07-22T04:07:16;15.20;;;6.80;;
9306;SDS011;4691;47.612;7.610;2023-07-22T04:09:41;18.15;;;7.25;;
9306;SDS011;4691;47.612;7.610;2023-07-22T04:12:07;14.95;;;6.55;;
9306;SDS011;4691;47.612;7.610;2023-07-22T04:14:33;13.45;;;6.90;;
9306;SDS011;4691;47.612;7.610;2023-07-22T04:16:58;13.32;;;6.78;;
9306;SDS011;4691;47.612;7.610;2023-07-22T04:19:23;12.32;;;6.25;;
9306;SDS011;4691;47.612;7.610;2023-07-22T04:21:49;13.18;;;6.28;;
9306;SDS011;4691;47.612;7.610;2023-07-22T04:24:14;11.95;;;6.55;;
9306;SDS011;4691;47.612;7.610;2023-07-22T04:26:41;12.20;;;6.68;;
9306;SDS011;4691;47.612;7.610;2023-07-22T04:29:07;13.35;;;6.32;;
9306;SDS011;4691;47.612;7.610;2023-07-22T04:31:33;12.82;;;6.25;;
9306;SDS011;4691;47.612;7.610;2023-07-22T04:33:58;15.45;;;7.18;;
9306;SDS011;4691;47.612;7.610;2023-07-22T04:36:23;14.02;;;6.53;;
9306;SDS011;4691;47.612;7.610;2023-07-22T04:38:49;15.82;;;6.40;;
9306;SDS011;4691;47.612;7.610;2023-07-22T04:41:14;12.93;;;6.75;;
9306;SDS011;4691;47.612;7.610;2023-07-22T04:43:39;14.65;;;6.38;;
9306;SDS011;4691;47.612;7.610;2023-07-22T04:46:05;12.27;;;5.80;;
9306;SDS011;4691;47.612;7.610;2023-07-22T04:48:30;12.48;;;6.85;;
9306;SDS011;4691;47.612;7.610;2023-07-22T04:50:56;13.27;;;7.07;;
9306;SDS011;4691;47.612;7.610;2023-07-22T04:53:22;12.50;;;6.75;;
9306;SDS011;4691;47.612;7.610;2023-07-22T04:55:47;14.80;;;6.90;;
9306;SDS011;4691;47.612;7.610;2023-07-22T04:58:13;12.82;;;7.63;;
9306;SDS011;4691;47.612;7.610;2023-07-22T05:00:38;13.82;;;7.25;;
9306;SDS011;4691;47.612;7.610;2023-07-22T05:03:04;15.50;;;6.95;;
9306;SDS011;4691;47.612;7.610;2023-07-22T05:05:29;13.52;;;7.18;;
9306;SDS011;4691;47.612;7.610;2023-07-22T05:07:55;12.85;;;7.07;;
9306;SDS011;4691;47.612;7.610;2023-07-22T05:10:20;17.38;;;7.68;;
9306;SDS011;4691;47.612;7.610;2023-07-22T05:12:45;15.52;;;7.43;;
9306;SDS011;4691;47.612;7.610;2023-07-22T05:15:11;15.38;;;7.35;;
9306;SDS011;4691;47.612;7.610;2023-07-22T05:17:38;12.45;;;6.50;;
9306;SDS011;4691;47.612;7.610;2023-07-22T05:20:03;15.00;;;6.90;;
9306;SDS011;4691;47.612;7.610;2023-07-22T05:22:31;11.25;;;6.85;;
9306;SDS011;4691;47.612;7.610;2023-07-22T05:24:57;20.05;;;7.65;;
9306;SDS011;4691;47.612;7.610;2023-07-22T05:27:22;15.20;;;7.07;;
9306;SDS011;4691;47.612;7.610;2023-07-22T05:29:48;13.50;;;6.78;;
9306;SDS011;4691;47.612;7.610;2023-07-22T05:32:13;16.10;;;6.97;;
9306;SDS011;4691;47.612;7.610;2023-07-22T05:34:38;12.50;;;7.38;;
9306;SDS011;4691;47.612;7.610;2023-07-22T05:37:04;11.25;;;6.63;;
9306;SDS011;4691;47.612;7.610;2023-07-22T05:39:29;17.65;;;6.63;;
9306;SDS011;4691;47.612;7.610;2023-07-22T05:41:54;14.95;;;6.72;;
9306;SDS011;4691;47.612;7.610;2023-07-22T05:44:21;16.38;;;7.28;;
9306;SDS011;4691;47.612;7.610;2023-07-22T05:46:47;14.05;;;7.25;;
9306;SDS011;4691;47.612;7.610;2023-07-22T05:49:12;13.07;;;6.65;;
9306;SDS011;4691;47.612;7.610;2023-07-22T05:51:37;17.08;;;6.53;;
9306;SDS011;4691;47.612;7.610;2023-07-22T05:54:03;14.68;;;6.70;;
9306;SDS011;4691;47.612;7.610;2023-07-22T05:56:28;15.02;;;6.78;;
9306;SDS011;4691;47.612;7.610;2023-07-22T05:58:54;13.50;;;7.63;;
9306;SDS011;4691;47.612;7.610;2023-07-22T06:01:19;14.82;;;7.30;;
9306;SDS011;4691;47.612;7.610;2023-07-22T06:03:45;12.07;;;6.80;;
9306;SDS011;4691;47.612;7.610;2023-07-22T06:06:10;17.85;;;7.00;;
9306;SDS011;4691;47.612;7.610;2023-07-22T06:08:35;12.13;;;6.15;;
9306;SDS011;4691;47.612;7.610;2023-07-22T06:11:01;10.80;;;6.20;;
9306;SDS011;4691;47.612;7.610;2023-07-22T06:13:26;10.95;;;6.05;;
9306;SDS011;4691;47.612;7.610;2023-07-22T06:15:52;13.05;;;6.50;;
9306;SDS011;4691;47.612;7.610;2023-07-22T06:18:17;15.23;;;7.28;;
9306;SDS011;4691;47.612;7.610;2023-07-22T06:20:43;10.45;;;6.18;;
9306;SDS011;4691;47.612;7.610;2023-07-22T06:23:09;12.25;;;6.20;;
9306;SDS011;4691;47.612;7.610;2023-07-22T06:25:34;14.93;;;7.40;;
9306;SDS011;4691;47.612;7.610;2023-07-22T06:27:59;11.50;;;5.95;;
9306;SDS011;4691;47.612;7.610;2023-07-22T06:30:25;12.32;;;7.05;;
9306;SDS011;4691;47.612;7.610;2023-07-22T06:32:50;11.77;;;6.05;;
9306;SDS011;4691;47.612;7.610;2023-07-22T06:35:15;12.90;;;5.78;;
9306;SDS011;4691;47.612;7.610;2023-07-22T06:37:40;15.50;;;5.97;;
9306;SDS011;4691;47.612;7.610;2023-07-22T06:40:06;12.10;;;5.72;;
9306;SDS011;4691;47.612;7.610;2023-07-22T06:42:32;11.40;;;5.50;;
9306;SDS011;4691;47.612;7.610;2023-07-22T06:44:57;9.82;;;5.55;;
9306;SDS011;4691;47.612;7.610;2023-07-22T06:47:22;9.80;;;5.55;;
9306;SDS011;4691;47.612;7.610;2023-07-22T06:49:48;9.63;;;5.45;;
9306;SDS011;4691;47.612;7.610;2023-07-22T06:52:13;11.65;;;5.07;;
9306;SDS011;4691;47.612;7.610;2023-07-22T06:54:38;8.32;;;5.35;;
9306;SDS011;4691;47.612;7.610;2023-07-22T06:57:04;13.93;;;5.63;;
9306;SDS011;4691;47.612;7.610;2023-07-22T06:59:31;10.60;;;5.32;;
9306;SDS011;4691;47.612;7.610;2023-07-22T07:01:56;9.82;;;5.32;;
9306;SDS011;4691;47.612;7.610;2023-07-22T07:04:21;10.38;;;5.28;;
9306;SDS011;4691;47.612;7.610;2023-07-22T07:06:47;10.40;;;5.32;;
9306;SDS011;4691;47.612;7.610;2023-07-22T07:09:12;11.90;;;5.75;;
9306;SDS011;4691;47.612;7.610;2023-07-22T07:11:37;9.88;;;6.15;;
9306;SDS011;4691;47.612;7.610;2023-07-22T07:14:03;7.22;;;4.72;;
9306;SDS011;4691;47.612;7.610;2023-07-22T07:16:29;12.00;;;5.55;;
9306;SDS011;4691;47.612;7.610;2023-07-22T07:18:57;10.25;;;5.55;;
9306;SDS011;4691;47.612;7.610;2023-07-22T07:21:23;11.45;;;5.00;;
9306;SDS011;4691;47.612;7.610;2023-07-22T07:23:49;10.93;;;5.38;;
9306;SDS011;4691;47.612;7.610;2023-07-22T07:26:15;11.93;;;5.55;;
9306;SDS011;4691;47.612;7.610;2023-07-22T07:28:40;11.48;;;5.60;;
9306;SDS011;4691;47.612;7.610;2023-07-22T07:31:06;8.75;;;5.40;;
9306;SDS011;4691;47.612;7.610;2023-07-22T07:33:32;9.68;;;5.32;;
9306;SDS011;4691;47.612;7.610;2023-07-22T07:35:58;9.95;;;5.90;;
9306;SDS011;4691;47.612;7.610;2023-07-22T07:38:23;11.77;;;4.95;;
9306;SDS011;4691;47.612;7.610;2023-07-22T07:40:52;8.77;;;5.00;;
9306;SDS011;4691;47.612;7.610;2023-07-22T07:43:20;11.32;;;5.00;;
9306;SDS011;4691;47.612;7.610;2023-07-22T07:45:45;8.85;;;5.00;;
9306;SDS011;4691;47.612;7.610;2023-07-22T07:48:11;11.95;;;5.90;;
9306;SDS011;4691;47.612;7.610;2023-07-22T07:50:36;7.65;;;4.78;;
9306;SDS011;4691;47.612;7.610;2023-07-22T07:53:01;9.88;;;4.90;;
9306;SDS011;4691;47.612;7.610;2023-07-22T07:55:27;9.07;;;5.13;;
9306;SDS011;4691;47.612;7.610;2023-07-22T07:57:52;9.55;;;5.05;;
9306;SDS011;4691;47.612;7.610;2023-07-22T08:00:17;9.55;;;5.18;;
9306;SDS011;4691;47.612;7.610;2023-07-22T08:02:45;9.15;;;4.82;;
9306;SDS011;4691;47.612;7.610;2023-07-22T08:05:10;11.73;;;5.00;;
9306;SDS011;4691;47.612;7.610;2023-07-22T08:07:37;8.18;;;5.22;;
9306;SDS011;4691;47.612;7.610;2023-07-22T08:10:03;8.23;;;5.22;;
9306;SDS011;4691;47.612;7.610;2023-07-22T08:12:30;9.88;;;4.95;;
9306;SDS011;4691;47.612;7.610;2023-07-22T08:14:55;11.63;;;5.32;;
9306;SDS011;4691;47.612;7.610;2023-07-22T08:17:21;12.73;;;4.88;;
9306;SDS011;4691;47.612;7.610;2023-07-22T08:19:46;8.07;;;4.60;;
9306;SDS011;4691;47.612;7.610;2023-07-22T08:22:12;11.65;;;5.15;;
9306;SDS011;4691;47.612;7.610;2023-07-22T08:24:37;9.30;;;5.13;;
9306;SDS011;4691;47.612;7.610;2023-07-22T08:27:02;8.23;;;4.88;;
9306;SDS011;4691;47.612;7.610;2023-07-22T08:29:28;11.35;;;4.70;;
9306;SDS011;4691;47.612;7.610;2023-07-22T08:31:53;9.75;;;4.95;;
9306;SDS011;4691;47.612;7.610;2023-07-22T08:34:19;14.13;;;4.50;;
9306;SDS011;4691;47.612;7.610;2023-07-22T08:36:44;9.57;;;4.85;;
9306;SDS011;4691;47.612;7.610;2023-07-22T08:39:09;7.15;;;4.40;;
9306;SDS011;4691;47.612;7.610;2023-07-22T08:41:35;6.70;;;4.50;;
9306;SDS011;4691;47.612;7.610;2023-07-22T08:44:01;7.20;;;4.50;;
9306;SDS011;4691;47.612;7.610;2023-07-22T08:46:29;7.10;;;4.70;;
9306;SDS011;4691;47.612;7.610;2023-07-22T08:48:59;10.80;;;4.18;;
9306;SDS011;4691;47.612;7.610;2023-07-22T08:51:25;10.02;;;4.63;;
9306;SDS011;4691;47.612;7.610;2023-07-22T08:53:53;8.35;;;4.55;;
9306;SDS011;4691;47.612;7.610;2023-07-22T08:56:22;6.32;;;4.43;;
9306;SDS011;4691;47.612;7.610;2023-07-22T08:58:49;7.78;;;5.03;;
9306;SDS011;4691;47.612;7.610;2023-07-22T09:01:16;7.90;;;4.13;;
9306;SDS011;4691;47.612;7.610;2023-07-22T09:03:41;9.13;;;4.85;;
9306;SDS011;4691;47.612;7.610;2023-07-22T09:06:07;7.22;;;4.43;;
9306;SDS011;4691;47.612;7.610;2023-07-22T09:08:34;12.95;;;4.00;;
9306;SDS011;4691;47.612;7.610;2023-07-22T09:11:03;5.95;;;3.60;;
9306;SDS011;4691;47.612;7.610;2023-07-22T09:13:32;7.77;;;3.67;;
9306;SDS011;4691;47.612;7.610;2023-07-22T09:15:58;8.00;;;4.22;;
9306;SDS011;4691;47.612;7.610;2023-07-22T09:18:24;5.72;;;3.60;;
9306;SDS011;4691;47.612;7.610;2023-07-22T09:20:51;11.15;;;3.55;;
9306;SDS011;4691;47.612;7.610;2023-07-22T09:23:16;5.47;;;3.35;;
9306;SDS011;4691;47.612;7.610;2023-07-22T09:25:42;6.55;;;3.38;;
9306;SDS011;4691;47.612;7.610;2023-07-22T09:28:08;5.30;;;3.30;;
9306;SDS011;4691;47.612;7.610;2023-07-22T09:30:35;5.03;;;2.92;;
9306;SDS011;4691;47.612;7.610;2023-07-22T09:33:02;6.20;;;3.20;;
9306;SDS011;4691;47.612;7.610;2023-07-22T09:35:45;7.15;;;3.15;;
9306;SDS011;4691;47.612;7.610;2023-07-22T09:38:12;7.60;;;3.00;;
9306;SDS011;4691;47.612;7.610;2023-07-22T09:40:42;3.80;;;2.70;;
9306;SDS011;4691;47.612;7.610;2023-07-22T09:43:09;5.28;;;2.72;;
9306;SDS011;4691;47.612;7.610;2023-07-22T09:45:36;7.27;;;3.10;;
9306;SDS011;4691;47.612;7.610;2023-07-22T09:48:03;6.05;;;2.80;;
9306;SDS011;4691;47.612;7.610;2023-07-22T09:50:33;6.50;;;2.75;;
9306;SDS011;4691;47.612;7.610;2023-07-22T09:53:01;5.72;;;3.20;;
9306;SDS011;4691;47.612;7.610;2023-07-22T09:55:28;4.95;;;2.58;;
9306;SDS011;4691;47.612;7.610;2023-07-22T09:57:55;6.75;;;2.88;;
9306;SDS011;4691;47.612;7.610;2023-07-22T10:00:56;5.10;;;2.70;;
9306;SDS011;4691;47.612;7.610;2023-07-22T10:03:17;4.68;;;2.60;;
9306;SDS011;4691;47.612;7.610;2023-07-22T10:05:44;5.88;;;3.13;;
9306;SDS011;4691;47.612;7.610;2023-07-22T10:08:11;9.30;;;5.30;;
9306;SDS011;4691;47.612;7.610;2023-07-22T10:10:39;5.47;;;2.90;;
9306;SDS011;4691;47.612;7.610;2023-07-22T10:13:08;5.85;;;2.65;;
9306;SDS011;4691;47.612;7.610;2023-07-22T10:15:34;3.42;;;2.63;;
9306;SDS011;4691;47.612;7.610;2023-07-22T10:18:00;4.15;;;2.33;;
9306;SDS011;4691;47.612;7.610;2023-07-22T10:20:27;3.90;;;2.38;;
9306;SDS011;4691;47.612;7.610;2023-07-22T10:22:59;3.55;;;2.53;;
9306;SDS011;4691;47.612;7.610;2023-07-22T10:25:25;10.40;;;3.20;;
9306;SDS011;4691;47.612;7.610;2023-07-22T10:27:53;5.32;;;3.20;;
9306;SDS011;4691;47.612;7.610;2023-07-22T10:30:19;4.95;;;2.30;;
9306;SDS011;4691;47.612;7.610;2023-07-22T10:32:48;5.68;;;2.70;;
9306;SDS011;4691;47.612;7.610;2023-07-22T10:35:17;4.22;;;2.50;;
9306;SDS011;4691;47.612;7.610;2023-07-22T10:37:56;4.57;;;2.33;;
9306;SDS011;4691;47.612;7.610;2023-07-22T10:40:31;5.03;;;2.42;;
9306;SDS011;4691;47.612;7.610;2023-07-22T10:42:58;5.05;;;2.88;;
9306;SDS011;4691;47.612;7.610;2023-07-22T10:45:29;3.90;;;2.80;;
9306;SDS011;4691;47.612;7.610;2023-07-22T10:53:32;4.07;;;2.28;;
9306;SDS011;4691;47.612;7.610;2023-07-22T11:01:22;3.67;;;2.60;;
9306;SDS011;4691;47.612;7.610;2023-07-22T11:12:05;3.78;;;2.33;;
9306;SDS011;4691;47.612;7.610;2023-07-22T11:17:18;4.13;;;2.30;;
9306;SDS011;4691;47.612;7.610;2023-07-22T11:19:55;2.75;;;2.20;;
9306;SDS011;4691;47.612;7.610;2023-07-22T11:22:21;3.58;;;2.40;;
9306;SDS011;4691;47.612;7.610;2023-07-22T11:24:46;4.28;;;2.53;;
9306;SDS011;4691;47.612;7.610;2023-07-22T11:27:11;8.98;;;2.67;;
9306;SDS011;4691;47.612;7.610;2023-07-22T11:29:39;4.60;;;2.42;;
9306;SDS011;4691;47.612;7.610;2023-07-22T11:32:05;3.15;;;2.50;;
9306;SDS011;4691;47.612;7.610;2023-07-22T11:34:31;8.20;;;2.58;;
9306;SDS011;4691;47.612;7.610;2023-07-22T11:36:57;4.90;;;2.72;;
9306;SDS011;4691;47.612;7.610;2023-07-22T11:39:24;5.65;;;2.85;;
9306;SDS011;4691;47.612;7.610;2023-07-22T11:41:56;5.72;;;2.83;;
9306;SDS011;4691;47.612;7.610;2023-07-22T11:44:26;5.70;;;2.50;;
9306;SDS011;4691;47.612;7.610;2023-07-22T11:46:54;4.57;;;2.78;;
9306;SDS011;4691;47.612;7.610;2023-07-22T11:49:22;4.03;;;2.50;;
9306;SDS011;4691;47.612;7.610;2023-07-22T11:51:49;5.53;;;3.00;;
9306;SDS011;4691;47.612;7.610;2023-07-22T11:54:14;5.55;;;2.35;;
9306;SDS011;4691;47.612;7.610;2023-07-22T11:56:43;5.43;;;2.60;;
9306;SDS011;4691;47.612;7.610;2023-07-22T11:59:08;4.43;;;2.55;;
9306;SDS011;4691;47.612;7.610;2023-07-22T12:01:34;4.82;;;2.60;;
9306;SDS011;4691;47.612;7.610;2023-07-22T12:03:59;4.78;;;2.67;;
9306;SDS011;4691;47.612;7.610;2023-07-22T12:06:25;5.10;;;2.50;;
9306;SDS011;4691;47.612;7.610;2023-07-22T12:08:52;5.13;;;2.45;;
9306;SDS011;4691;47.612;7.610;2023-07-22T12:11:18;2.85;;;2.40;;
9306;SDS011;4691;47.612;7.610;2023-07-22T12:13:45;5.45;;;2.70;;
9306;SDS011;4691;47.612;7.610;2023-07-22T12:16:20;3.97;;;2.70;;
9306;SDS011;4691;47.612;7.610;2023-07-22T12:18:48;3.75;;;2.70;;
9306;SDS011;4691;47.612;7.610;2023-07-22T12:21:14;7.35;;;3.00;;
9306;SDS011;4691;47.612;7.610;2023-07-22T12:23:39;5.82;;;3.13;;
9306;SDS011;4691;47.612;7.610;2023-07-22T12:26:06;3.40;;;2.47;;
9306;SDS011;4691;47.612;7.610;2023-07-22T12:28:31;3.83;;;2.50;;
9306;SDS011;4691;47.612;7.610;2023-07-22T12:30:57;3.20;;;2.40;;
9306;SDS011;4691;47.612;7.610;2023-07-22T12:33:23;6.25;;;2.78;;
9306;SDS011;4691;47.612;7.610;2023-07-22T12:35:49;5.90;;;3.10;;
9306;SDS011;4691;47.612;7.610;2023-07-22T12:38:15;3.72;;;2.80;;
9306;SDS011;4691;47.612;7.610;2023-07-22T12:40:40;7.38;;;2.88;;
9306;SDS011;4691;47.612;7.610;2023-07-22T12:43:08;7.45;;;2.90;;
9306;SDS011;4691;47.612;7.610;2023-07-22T12:45:34;3.85;;;2.40;;
9306;SDS011;4691;47.612;7.610;2023-07-22T12:47:59;3.40;;;2.80;;
9306;SDS011;4691;47.612;7.610;2023-07-22T12:50:24;3.97;;;2.63;;
9306;SDS011;4691;47.612;7.610;2023-07-22T12:52:50;4.85;;;3.03;;
9306;SDS011;4691;47.612;7.610;2023-07-22T12:55:17;3.77;;;2.80;;
9306;SDS011;4691;47.612;7.610;2023-07-22T12:57:43;3.83;;;2.90;;
9306;SDS011;4691;47.612;7.610;2023-07-22T13:00:09;5.45;;;2.55;;
9306;SDS011;4691;47.612;7.610;2023-07-22T13:02:36;3.92;;;2.70;;
9306;SDS011;4691;47.612;7.610;2023-07-22T13:05:05;4.43;;;2.67;;
9306;SDS011;4691;47.612;7.610;2023-07-22T13:07:31;4.40;;;2.35;;
9306;SDS011;4691;47.612;7.610;2023-07-22T13:09:56;6.00;;;2.65;;
9306;SDS011;4691;47.612;7.610;2023-07-22T13:12:24;3.45;;;2.38;;
9306;SDS011;4691;47.612;7.610;2023-07-22T13:14:49;4.43;;;2.80;;
9306;SDS011;4691;47.612;7.610;2023-07-22T13:17:14;3.38;;;2.63;;
9306;SDS011;4691;47.612;7.610;2023-07-22T13:19:42;4.20;;;2.33;;
9306;SDS011;4691;47.612;7.610;2023-07-22T13:22:07;3.78;;;2.33;;
9306;SDS011;4691;47.612;7.610;2023-07-22T13:24:32;5.40;;;2.60;;
9306;SDS011;4691;47.612;7.610;2023-07-22T13:26:58;5.45;;;2.42;;
9306;SDS011;4691;47.612;7.610;2023-07-22T13:29:26;6.88;;;2.97;;
9306;SDS011;4691;47.612;7.610;2023-07-22T13:31:52;4.82;;;2.42;;
9306;SDS011;4691;47.612;7.610;2023-07-22T13:34:18;6.07;;;3.10;;
9306;SDS011;4691;47.612;7.610;2023-07-22T13:36:43;4.37;;;2.60;;
9306;SDS011;4691;47.612;7.610;2023-07-22T13:39:08;5.28;;;2.65;;
9306;SDS011;4691;47.612;7.610;2023-07-22T13:41:34;3.60;;;2.42;;
9306;SDS011;4691;47.612;7.610;2023-07-22T13:43:59;6.22;;;2.53;;
9306;SDS011;4691;47.612;7.610;2023-07-22T13:46:25;4.95;;;2.15;;
9306;SDS011;4691;47.612;7.610;2023-07-22T13:48:50;6.00;;;2.60;;
9306;SDS011;4691;47.612;7.610;2023-07-22T13:51:15;4.15;;;2.50;;
9306;SDS011;4691;47.612;7.610;2023-07-22T13:53:40;3.90;;;2.60;;
9306;SDS011;4691;47.612;7.610;2023-07-22T13:56:06;6.27;;;2.63;;
9306;SDS011;4691;47.612;7.610;2023-07-22T13:58:32;2.72;;;2.33;;
9306;SDS011;4691;47.612;7.610;2023-07-22T14:00:57;3.03;;;2.27;;
9306;SDS011;4691;47.612;7.610;2023-07-22T14:03:22;4.03;;;2.70;;
9306;SDS011;4691;47.612;7.610;2023-07-22T14:05:50;3.60;;;2.53;;
9306;SDS011;4691;47.612;7.610;2023-07-22T14:08:15;5.35;;;2.38;;
9306;SDS011;4691;47.612;7.610;2023-07-22T14:10:41;6.35;;;2.20;;
9306;SDS011;4691;47.612;7.610;2023-07-22T14:13:06;3.95;;;2.38;;
9306;SDS011;4691;47.612;7.610;2023-07-22T14:15:34;3.53;;;2.30;;
9306;SDS011;4691;47.612;7.610;2023-07-22T14:17:59;2.70;;;2.22;;
9306;SDS011;4691;47.612;7.610;2023-07-22T14:20:24;8.07;;;2.47;;
9306;SDS011;4691;47.612;7.610;2023-07-22T14:22:50;6.35;;;2.53;;
9306;SDS011;4691;47.612;7.610;2023-07-22T14:25:15;5.68;;;2.95;;
9306;SDS011;4691;47.612;7.610;2023-07-22T14:27:41;4.07;;;2.40;;
9306;SDS011;4691;47.612;7.610;2023-07-22T14:30:07;5.75;;;2.50;;
9306;SDS011;4691;47.612;7.610;2023-07-22T14:32:33;5.45;;;2.60;;
9306;SDS011;4691;47.612;7.610;2023-07-22T14:34:58;8.48;;;2.65;;
9306;SDS011;4691;47.612;7.610;2023-07-22T14:37:24;3.25;;;2.40;;
9306;SDS011;4691;47.612;7.610;2023-07-22T14:39:51;3.03;;;2.20;;
9306;SDS011;4691;47.612;7.610;2023-07-22T14:42:17;5.18;;;2.60;;
9306;SDS011;4691;47.612;7.610;2023-07-22T14:44:42;3.45;;;2.30;;
9306;SDS011;4691;47.612;7.610;2023-07-22T14:47:07;3.67;;;2.28;;
9306;SDS011;4691;47.612;7.610;2023-07-22T14:49:33;3.40;;;2.22;;
9306;SDS011;4691;47.612;7.610;2023-07-22T14:51:58;6.22;;;2.10;;
9306;SDS011;4691;47.612;7.610;2023-07-22T14:54:23;3.40;;;2.30;;
9306;SDS011;4691;47.612;7.610;2023-07-22T14:56:48;4.53;;;2.50;;
9306;SDS011;4691;47.612;7.610;2023-07-22T14:59:14;7.75;;;2.38;;
9306;SDS011;4691;47.612;7.610;2023-07-22T15:01:40;4.60;;;2.50;;
9306;SDS011;4691;47.612;7.610;2023-07-22T15:04:06;4.00;;;2.42;;
9306;SDS011;4691;47.612;7.610;2023-07-22T15:06:32;3.35;;;2.45;;
9306;SDS011;4691;47.612;7.610;2023-07-22T15:08:57;3.40;;;2.25;;
9306;SDS011;4691;47.612;7.610;2023-07-22T15:11:23;4.07;;;2.45;;
9306;SDS011;4691;47.612;7.610;2023-07-22T15:13:48;2.95;;;2.10;;
9306;SDS011;4691;47.612;7.610;2023-07-22T15:16:13;3.87;;;2.37;;
9306;SDS011;4691;47.612;7.610;2023-07-22T15:18:39;5.07;;;2.20;;
9306;SDS011;4691;47.612;7.610;2023-07-22T15:21:06;4.25;;;2.10;;
9306;SDS011;4691;47.612;7.610;2023-07-22T15:23:31;5.03;;;2.50;;
9306;SDS011;4691;47.612;7.610;2023-07-22T15:25:57;4.03;;;2.40;;